Time;durP1;ratioP1;P1;durP2;ratioP2;P2;SDS_P1;SDS_P2;PMS_P1;PMS_P2;Temp;Humidity;BMP_temperature;BMP_pressure;BME280_temperature;BME280_humidity;BME280_pressure;Samples;Min_cycle;Max_cycle;Signal;HPM_P1;HPM_P2
2023/09/12 00:01:08;;;;;;;7.28;5.65;;;23.70;99.90;;;;;;4135934;28;20041;-67
2023/09/12 00:03:09;;;;;;;8.32;6.18;;;23.70;99.90;;;;;;4129996;28;20386;-66
2023/09/12 00:05:09;;;;;;;8.18;6.18;;;23.70;99.90;;;;;;4129853;28;20542;-67
2023/09/12 00:07:10;;;;;;;13.80;7.05;;;23.80;99.90;;;;;;4150056;28;20427;-66
2023/09/12 00:09:10;;;;;;;10.60;6.93;;;23.80;99.90;;;;;;4134235;28;20053;-66
2023/09/12 00:11:11;;;;;;;10.77;7.32;;;23.80;99.90;;;;;;4130489;28;20039;-72
2023/09/12 00:13:12;;;;;;;11.43;7.28;;;23.80;99.90;;;;;;4141125;28;20564;-73
2023/09/12 00:15:13;;;;;;;10.95;7.68;;;23.80;99.90;;;;;;4161160;28;20479;-73
2023/09/12 00:17:13;;;;;;;9.65;7.13;;;23.70;99.90;;;;;;4151351;28;20125;-69
2023/09/12 00:19:14;;;;;;;10.02;6.90;;;23.70;99.90;;;;;;4151842;28;20022;-72
2023/09/12 00:21:14;;;;;;;9.48;6.93;;;23.70;99.90;;;;;;4138735;28;20450;-73
2023/09/12 00:23:15;;;;;;;13.13;7.30;;;23.70;99.90;;;;;;4142492;28;20410;-72
2023/09/12 00:25:16;;;;;;;11.60;7.68;;;23.70;99.90;;;;;;4143728;28;20026;-73
2023/09/12 00:27:17;;;;;;;15.23;8.45;;;23.60;99.90;;;;;;4131077;28;20153;-73
2023/09/12 00:29:17;;;;;;;10.05;7.53;;;23.50;99.90;;;;;;4133176;28;20034;-72
2023/09/12 00:31:18;;;;;;;11.13;7.00;;;23.50;99.90;;;;;;4132551;28;20117;-73
2023/09/12 00:33:19;;;;;;;11.23;7.35;;;23.50;99.90;;;;;;4137311;28;20110;-73
2023/09/12 00:35:19;;;;;;;11.82;8.02;;;23.40;99.90;;;;;;4137831;28;20593;-72
2023/09/12 00:37:20;;;;;;;18.77;10.63;;;23.40;99.90;;;;;;4140307;28;20044;-72
2023/09/12 00:39:20;;;;;;;18.08;9.82;;;23.20;99.90;;;;;;4138969;28;20029;-73
2023/09/12 00:41:21;;;;;;;17.52;10.45;;;23.10;99.90;;;;;;4137379;28;20380;-69
2023/09/12 00:43:21;;;;;;;11.77;7.43;;;23.00;99.90;;;;;;4133773;28;20361;-73
2023/09/12 00:45:22;;;;;;;12.95;8.93;;;22.90;99.90;;;;;;4134522;28;20049;-73
2023/09/12 00:47:23;;;;;;;11.60;7.75;;;22.90;99.90;;;;;;4137909;28;20117;-74
2023/09/12 00:49:25;;;;;;;12.27;9.05;;;22.90;99.90;;;;;;4131969;28;20141;-74
2023/09/12 00:51:27;;;;;;;15.95;10.23;;;22.90;99.90;;;;;;4137389;28;20503;-75
2023/09/12 00:53:27;;;;;;;12.15;8.57;;;22.90;99.90;;;;;;4137748;28;20109;-74
2023/09/12 00:55:32;;;;;;;9.60;7.43;;;22.80;99.90;;;;;;4139182;28;20409;-73
2023/09/12 00:57:34;;;;;;;11.27;7.93;;;22.80;99.90;;;;;;4139143;28;20033;-73
2023/09/12 00:59:35;;;;;;;11.80;6.95;;;22.90;99.90;;;;;;4134791;28;20049;-74
2023/09/12 01:01:36;;;;;;;10.82;6.72;;;22.80;99.90;;;;;;4137017;28;20030;-73
2023/09/12 01:03:37;;;;;;;10.93;7.32;;;22.90;99.90;;;;;;4144102;28;20364;-73
2023/09/12 01:05:37;;;;;;;9.35;6.95;;;22.90;99.90;;;;;;4140775;28;20037;-73
2023/09/12 01:07:38;;;;;;;10.35;7.40;;;22.90;99.90;;;;;;4140489;28;20504;-70
2023/09/12 01:09:40;;;;;;;12.18;7.72;;;23.00;99.90;;;;;;4137180;28;20040;-69
2023/09/12 01:11:41;;;;;;;10.63;7.15;;;23.00;99.90;;;;;;4138961;28;20109;-70
2023/09/12 01:13:42;;;;;;;12.40;8.40;;;23.00;99.90;;;;;;4139170;28;20128;-70
2023/09/12 01:15:43;;;;;;;10.95;8.25;;;23.00;99.90;;;;;;4139685;28;20080;-70
2023/09/12 01:17:45;;;;;;;14.43;8.60;;;23.00;99.90;;;;;;4156099;28;20105;-68
2023/09/12 01:19:48;;;;;;;15.98;11.25;;;23.00;99.90;;;;;;4141965;28;20033;-66
2023/09/12 01:22:21;;;;;;;12.68;8.68;;;22.90;99.90;;;;;;4129191;28;20491;-66
2023/09/12 01:24:38;;;;;;;;;;;22.90;99.90;;;;;;4141496;28;20034;-65
2023/09/12 01:26:57;;;;;;;11.13;7.70;;;22.90;99.90;;;;;;4141359;28;19909;-65
2023/09/12 01:28:59;;;;;;;10.95;8.20;;;22.90;99.90;;;;;;4137384;28;20057;-68
2023/09/12 01:31:02;;;;;;;13.65;8.98;;;22.90;99.90;;;;;;4141700;28;20030;-67
2023/09/12 01:33:04;;;;;;;15.50;10.10;;;22.90;99.90;;;;;;4144294;28;20041;-67
2023/09/12 01:35:05;;;;;;;16.77;10.95;;;22.80;99.90;;;;;;4143206;28;20648;-68
2023/09/12 01:37:05;;;;;;;12.75;10.10;;;22.70;99.90;;;;;;4140191;28;20053;-67
2023/09/12 01:39:06;;;;;;;13.15;9.85;;;22.70;99.90;;;;;;4137515;28;20034;-66
2023/09/12 01:41:08;;;;;;;13.77;9.23;;;22.60;99.90;;;;;;4140240;28;20117;-66
2023/09/12 01:43:09;;;;;;;11.43;8.50;;;22.60;99.90;;;;;;4134285;28;20026;-67
2023/09/12 01:45:13;;;;;;;12.48;9.00;;;22.60;99.90;;;;;;4136061;28;20714;-68
2023/09/12 01:47:15;;;;;;;15.23;10.57;;;22.60;99.90;;;;;;4135035;28;20108;-66
2023/09/12 01:49:17;;;;;;;13.85;10.18;;;22.60;99.90;;;;;;4134470;28;20040;-67
2023/09/12 01:51:19;;;;;;;16.60;10.40;;;22.70;99.90;;;;;;4135564;28;21876;-67
2023/09/12 01:53:20;;;;;;;23.40;11.57;;;22.60;99.90;;;;;;4141362;28;20109;-66
2023/09/12 01:55:22;;;;;;;16.15;11.43;;;22.60;99.90;;;;;;4141127;28;20346;-66
2023/09/12 01:57:23;;;;;;;18.58;13.25;;;22.50;99.90;;;;;;4141410;28;20037;-66
2023/09/12 01:59:24;;;;;;;18.23;12.68;;;22.30;99.90;;;;;;4141803;28;20026;-68
2023/09/12 02:01:26;;;;;;;19.88;12.02;;;22.20;99.90;;;;;;4142521;28;20054;-66
2023/09/12 02:03:27;;;;;;;18.95;12.93;;;22.10;99.90;;;;;;4143873;28;20411;-66
2023/09/12 02:05:28;;;;;;;15.88;10.63;;;22.10;99.90;;;;;;4138790;28;20044;-66
2023/09/12 02:07:32;;;;;;;14.02;9.40;;;22.10;99.90;;;;;;4142167;28;20037;-66
2023/09/12 02:09:33;;;;;;;11.45;8.80;;;22.10;99.90;;;;;;4138063;28;20431;-66
2023/09/12 02:11:34;;;;;;;14.63;8.98;;;22.20;99.90;;;;;;4134193;28;20030;-67
2023/09/12 02:13:34;;;;;;;13.00;9.60;;;22.10;99.90;;;;;;4135709;28;20026;-67
2023/09/12 02:15:35;;;;;;;10.98;8.23;;;22.10;99.90;;;;;;4136807;28;20064;-66
2023/09/12 02:17:35;;;;;;;12.43;8.52;;;22.00;99.90;;;;;;4147305;28;20029;-66
2023/09/12 02:19:36;;;;;;;13.98;9.68;;;22.10;99.90;;;;;;4145627;28;20065;-66
2023/09/12 02:21:36;;;;;;;14.55;9.38;;;22.00;99.90;;;;;;4129387;28;20027;-66
2023/09/12 02:23:37;;;;;;;14.00;8.95;;;22.00;99.90;;;;;;4148614;28;20106;-66
2023/09/12 02:25:38;;;;;;;13.98;8.07;;;22.00;99.90;;;;;;4141521;28;20034;-66
2023/09/12 02:27:38;;;;;;;9.68;7.05;;;22.00;99.90;;;;;;4142032;28;20037;-66
2023/09/12 02:29:42;;;;;;;11.30;6.90;;;22.00;99.90;;;;;;4138446;28;20029;-73
2023/09/12 02:31:43;;;;;;;13.82;8.93;;;22.00;99.90;;;;;;4140102;28;20045;-67
2023/09/12 02:33:44;;;;;;;11.68;7.85;;;22.00;99.90;;;;;;4145420;28;20026;-66
2023/09/12 02:35:45;;;;;;;12.20;7.70;;;21.90;99.90;;;;;;4147666;28;20053;-70
2023/09/12 02:37:46;;;;;;;15.48;8.55;;;22.00;99.90;;;;;;4152330;28;20037;-69
2023/09/12 02:39:46;;;;;;;12.32;7.93;;;21.70;99.90;;;;;;4142840;28;20478;-71
2023/09/12 02:41:47;;;;;;;11.20;7.90;;;21.80;99.90;;;;;;4144899;28;20112;-70
2023/09/12 02:43:47;;;;;;;14.40;8.82;;;21.80;99.90;;;;;;4142900;28;20042;-71
2023/09/12 02:45:48;;;;;;;10.60;6.75;;;21.80;99.90;;;;;;4132384;28;20129;-72
2023/09/12 02:47:49;;;;;;;19.48;9.38;;;21.80;99.90;;;;;;4141378;28;20564;-72
2023/09/12 02:49:49;;;;;;;18.10;10.10;;;21.60;99.90;;;;;;4132037;28;20041;-67
2023/09/12 02:51:50;;;;;;;8.82;6.97;;;21.40;99.90;;;;;;4150410;28;20025;-68
2023/09/12 02:53:51;;;;;;;9.00;6.35;;;21.40;99.90;;;;;;4153840;28;20042;-66
2023/09/12 02:55:51;;;;;;;9.40;6.25;;;21.50;99.90;;;;;;4158778;28;20034;-67
2023/09/12 02:57:52;;;;;;;9.15;5.80;;;21.50;99.90;;;;;;4146201;28;20649;-67
2023/09/12 02:59:52;;;;;;;9.30;6.30;;;21.60;99.90;;;;;;4131888;28;20039;-67
2023/09/12 03:01:53;;;;;;;11.95;8.10;;;21.60;99.90;;;;;;4141228;28;20113;-66
2023/09/12 03:03:54;;;;;;;13.15;8.30;;;21.70;99.90;;;;;;4143258;28;20038;-66
2023/09/12 03:06:03;;;;;;;11.43;7.90;;;21.60;99.90;;;;;;4154593;28;20045;-69
2023/09/12 03:08:04;;;;;;;10.55;6.88;;;21.60;99.90;;;;;;4150253;28;20052;-68
2023/09/12 03:10:05;;;;;;;7.97;6.15;;;21.70;99.90;;;;;;4139837;28;20034;-70
2023/09/12 03:12:06;;;;;;;7.45;5.53;;;21.70;99.90;;;;;;4141009;28;20126;-69
2023/09/12 03:14:07;;;;;;;7.50;5.88;;;21.80;99.90;;;;;;4148852;28;20045;-66
2023/09/12 03:16:12;;;;;;;10.05;6.53;;;21.80;99.90;;;;;;4145985;28;20034;-69
2023/09/12 03:18:12;;;;;;;11.82;6.57;;;21.90;99.90;;;;;;4157383;28;20030;-69
2023/09/12 03:20:13;;;;;;;7.72;5.43;;;21.90;99.90;;;;;;4136013;28;20058;-69
2023/09/12 03:22:14;;;;;;;7.97;6.13;;;21.90;99.90;;;;;;4132099;28;20033;-69
2023/09/12 03:24:18;;;;;;;8.68;5.90;;;22.00;99.90;;;;;;4142306;28;21119;-67
2023/09/12 03:26:18;;;;;;;10.60;6.38;;;22.00;99.90;;;;;;4143588;28;20026;-67
2023/09/12 03:28:19;;;;;;;8.95;6.22;;;22.10;99.90;;;;;;4146246;28;20026;-67
2023/09/12 03:30:21;;;;;;;10.75;7.15;;;22.10;99.90;;;;;;4137323;28;20494;-67
2023/09/12 03:32:21;;;;;;;7.05;5.85;;;22.10;99.90;;;;;;4142399;28;20599;-68
2023/09/12 03:34:22;;;;;;;8.52;5.28;;;22.10;99.90;;;;;;4141607;28;20042;-68
2023/09/12 03:36:23;;;;;;;8.65;6.07;;;22.10;99.90;;;;;;4141886;28;20499;-67
2023/09/12 03:38:23;;;;;;;7.50;5.55;;;22.20;99.90;;;;;;4141155;28;20120;-67
2023/09/12 03:40:24;;;;;;;7.72;6.32;;;22.20;99.90;;;;;;4136835;28;20240;-67
2023/09/12 03:42:25;;;;;;;9.23;6.30;;;22.20;99.90;;;;;;4141744;28;20030;-67
2023/09/12 03:44:26;;;;;;;8.50;6.65;;;22.20;99.90;;;;;;4140650;28;20030;-66
2023/09/12 03:46:27;;;;;;;8.85;6.45;;;22.20;99.90;;;;;;4143473;28;20057;-67
2023/09/12 03:48:30;;;;;;;8.43;6.80;;;22.10;99.90;;;;;;4143764;28;20121;-70
2023/09/12 03:50:31;;;;;;;8.55;6.57;;;22.00;99.90;;;;;;4139644;28;20046;-68
2023/09/12 03:52:31;;;;;;;8.70;5.88;;;21.90;99.90;;;;;;4137099;28;20038;-67
2023/09/12 03:54:32;;;;;;;7.75;6.18;;;22.00;99.90;;;;;;4139374;28;20034;-69
2023/09/12 03:56:33;;;;;;;8.48;5.93;;;21.90;99.90;;;;;;4148455;28;20045;-67
2023/09/12 03:58:33;;;;;;;7.70;5.90;;;22.00;99.90;;;;;;4143713;28;20041;-67
2023/09/12 04:00:34;;;;;;;9.30;6.00;;;22.10;99.90;;;;;;4127023;28;20038;-71
2023/09/12 04:02:34;;;;;;;8.95;5.97;;;22.10;99.90;;;;;;4143576;28;20033;-72
2023/09/12 04:04:35;;;;;;;8.07;5.50;;;22.10;99.90;;;;;;4152236;28;20034;-72
2023/09/12 04:06:36;;;;;;;7.05;5.30;;;22.10;99.90;;;;;;4147733;28;20054;-72
2023/09/12 04:08:36;;;;;;;6.70;5.18;;;22.20;99.90;;;;;;4154817;28;20257;-71
2023/09/12 04:10:37;;;;;;;9.38;5.85;;;22.20;99.90;;;;;;4144192;28;20566;-72
2023/09/12 04:12:37;;;;;;;9.32;6.00;;;22.20;99.90;;;;;;4144190;28;20115;-72
2023/09/12 04:14:38;;;;;;;7.30;5.38;;;22.20;99.90;;;;;;4146899;28;20041;-72
2023/09/12 04:16:39;;;;;;;8.45;6.00;;;22.20;99.90;;;;;;4136035;28;20387;-73
2023/09/12 04:18:39;;;;;;;8.85;6.22;;;22.20;99.90;;;;;;4136267;28;20096;-72
2023/09/12 04:20:40;;;;;;;7.63;5.38;;;22.30;99.90;;;;;;4138630;28;20029;-72
2023/09/12 04:22:42;;;;;;;9.70;6.28;;;22.30;99.90;;;;;;4148428;28;20034;-73
2023/09/12 04:24:43;;;;;;;9.35;6.38;;;22.30;99.90;;;;;;4145975;28;20030;-73
2023/09/12 04:26:44;;;;;;;8.88;6.10;;;22.30;99.90;;;;;;4142406;28;20057;-73
2023/09/12 04:28:46;;;;;;;12.68;7.05;;;22.30;99.90;;;;;;4143867;28;20030;-73
2023/09/12 04:30:47;;;;;;;11.40;8.13;;;22.30;99.90;;;;;;4143199;28;20041;-72
2023/09/12 04:32:48;;;;;;;8.15;6.25;;;22.20;99.90;;;;;;4142407;28;20532;-72
2023/09/12 04:34:49;;;;;;;8.07;6.38;;;22.20;99.90;;;;;;4152340;28;20391;-72
2023/09/12 04:36:50;;;;;;;6.45;5.45;;;22.20;99.90;;;;;;4133456;28;20041;-72
2023/09/12 04:38:51;;;;;;;9.73;7.75;;;22.20;99.90;;;;;;4144044;28;20036;-72
2023/09/12 04:41:02;;;;;;;8.90;6.28;;;22.20;99.90;;;;;;4141859;28;20487;-73
2023/09/12 04:43:03;;;;;;;14.05;7.82;;;22.20;99.90;;;;;;4144767;28;20426;-72
2023/09/12 04:45:04;;;;;;;10.65;7.95;;;22.20;99.90;;;;;;4145122;28;20068;-72
2023/09/12 04:47:05;;;;;;;13.35;8.32;;;22.20;99.90;;;;;;4137393;28;20384;-71
2023/09/12 04:49:05;;;;;;;14.77;8.77;;;22.20;99.90;;;;;;4134722;28;20049;-72
2023/09/12 04:51:06;;;;;;;14.05;10.63;;;22.10;99.90;;;;;;4136090;28;20372;-72
2023/09/12 04:53:07;;;;;;;9.93;7.97;;;22.10;99.90;;;;;;4154003;28;20037;-72
2023/09/12 04:55:08;;;;;;;10.98;7.30;;;22.00;99.90;;;;;;4140696;28;20464;-69
2023/09/12 04:57:08;;;;;;;11.55;7.28;;;22.00;99.90;;;;;;4136013;28;20038;-70
2023/09/12 04:59:09;;;;;;;10.18;7.75;;;22.00;99.90;;;;;;4140727;28;20119;-70
2023/09/12 05:01:09;;;;;;;10.88;8.35;;;22.10;99.90;;;;;;4139220;28;20040;-70
2023/09/12 05:03:10;;;;;;;13.35;8.55;;;22.00;99.90;;;;;;4139484;28;20121;-70
2023/09/12 05:05:11;;;;;;;11.65;7.82;;;22.10;99.90;;;;;;4141664;28;20030;-70
2023/09/12 05:07:11;;;;;;;16.05;10.32;;;22.00;99.90;;;;;;4142209;28;20571;-70
2023/09/12 05:09:12;;;;;;;12.45;7.80;;;21.90;99.90;;;;;;4141656;28;20062;-70
2023/09/12 05:11:13;;;;;;;12.48;9.07;;;21.90;99.90;;;;;;4142463;28;20030;-66
2023/09/12 05:13:13;;;;;;;15.80;8.30;;;21.90;99.90;;;;;;4143499;28;20034;-68
2023/09/12 05:15:14;;;;;;;13.25;9.20;;;21.80;99.90;;;;;;4142027;28;20034;-66
2023/09/12 05:17:15;;;;;;;12.65;8.57;;;21.80;99.90;;;;;;4130633;28;20803;-68
2023/09/12 05:19:15;;;;;;;15.68;10.27;;;21.80;99.90;;;;;;4136935;28;20026;-66
2023/09/12 05:21:16;;;;;;;17.20;11.65;;;21.80;99.90;;;;;;4131001;28;20038;-68
2023/09/12 05:23:16;;;;;;;15.65;10.63;;;21.70;99.90;;;;;;4128785;28;20038;-67
2023/09/12 05:25:17;;;;;;;16.67;11.00;;;21.70;99.90;;;;;;4132824;28;20551;-67
2023/09/12 05:27:18;;;;;;;15.85;9.50;;;21.70;99.90;;;;;;4132743;28;20022;-68
2023/09/12 05:29:18;;;;;;;12.70;8.85;;;21.70;99.90;;;;;;4134903;28;20030;-69
2023/09/12 05:31:19;;;;;;;13.80;8.27;;;21.70;99.90;;;;;;4130325;28;20061;-69
2023/09/12 05:33:19;;;;;;;14.10;10.32;;;21.70;99.90;;;;;;4138188;28;20624;-70
2023/09/12 05:35:20;;;;;;;18.50;11.38;;;21.70;99.90;;;;;;4149178;28;20045;-69
2023/09/12 05:37:21;;;;;;;18.50;12.52;;;21.70;99.90;;;;;;4144242;28;20479;-69
2023/09/12 05:39:21;;;;;;;22.63;14.27;;;21.60;99.90;;;;;;4147447;28;20044;-70
2023/09/12 05:41:22;;;;;;;18.13;11.32;;;21.50;99.90;;;;;;4138569;28;20064;-70
2023/09/12 05:43:23;;;;;;;15.23;10.63;;;21.40;99.90;;;;;;4134478;28;20071;-70
2023/09/12 05:45:23;;;;;;;13.63;9.13;;;21.30;99.90;;;;;;4139856;28;20038;-70
2023/09/12 05:47:24;;;;;;;15.27;9.82;;;21.30;99.90;;;;;;4134361;28;20783;-69
2023/09/12 05:49:25;;;;;;;16.73;10.55;;;21.30;99.90;;;;;;4140055;28;20378;-70
2023/09/12 05:51:25;;;;;;;15.95;9.98;;;21.30;99.90;;;;;;4137782;28;20046;-70
2023/09/12 05:53:26;;;;;;;14.02;10.55;;;21.30;99.90;;;;;;4139532;28;20479;-70
2023/09/12 05:55:26;;;;;;;16.35;11.85;;;21.30;99.90;;;;;;4135751;28;20122;-70
2023/09/12 05:57:27;;;;;;;17.38;12.38;;;21.30;99.90;;;;;;4132076;28;20080;-70
2023/09/12 05:59:28;;;;;;;14.38;10.23;;;21.20;99.90;;;;;;4125282;28;20052;-71
2023/09/12 06:01:28;;;;;;;13.93;9.65;;;21.20;99.90;;;;;;4132070;28;20148;-70
2023/09/12 06:03:29;;;;;;;11.95;8.93;;;21.20;99.90;;;;;;4133985;28;20389;-71
2023/09/12 06:05:30;;;;;;;11.85;8.85;;;21.20;99.90;;;;;;4132741;28;20404;-70
2023/09/12 06:07:32;;;;;;;15.20;11.30;;;21.30;99.90;;;;;;4130332;28;20058;-70
2023/09/12 06:09:32;;;;;;;19.88;12.35;;;21.20;99.90;;;;;;4139136;28;20125;-70
2023/09/12 06:11:34;;;;;;;11.00;8.07;;;21.20;99.90;;;;;;4126366;28;20105;-70
2023/09/12 06:13:37;;;;;;;10.63;7.65;;;21.20;99.90;;;;;;4156049;28;20124;-69
2023/09/12 06:15:38;;;;;;;10.82;7.97;;;21.20;99.90;;;;;;4136168;28;20523;-71
2023/09/12 06:17:38;;;;;;;15.38;8.55;;;21.20;99.90;;;;;;4141260;28;20026;-71
2023/09/12 06:19:39;;;;;;;10.85;8.18;;;21.30;99.90;;;;;;4130451;28;20047;-67
2023/09/12 06:21:40;;;;;;;13.10;8.70;;;21.30;99.90;;;;;;4149049;28;20061;-69
2023/09/12 06:23:41;;;;;;;12.70;7.53;;;21.20;99.90;;;;;;4134889;28;20080;-68
2023/09/12 06:25:43;;;;;;;12.15;8.48;;;21.20;99.90;;;;;;4131147;28;20030;-67
2023/09/12 06:27:43;;;;;;;14.07;8.47;;;21.20;99.90;;;;;;4133214;28;20029;-68
2023/09/12 06:29:47;;;;;;;12.35;8.50;;;21.20;99.90;;;;;;4128910;28;20018;-67
2023/09/12 06:31:48;;;;;;;9.80;7.40;;;21.20;99.90;;;;;;4133607;28;20065;-67
2023/09/12 06:33:48;;;;;;;10.07;7.10;;;21.20;99.90;;;;;;4133538;28;20035;-66
2023/09/12 06:35:50;;;;;;;14.98;8.27;;;21.20;99.90;;;;;;4125714;28;20054;-67
2023/09/12 06:37:50;;;;;;;12.40;8.50;;;21.30;99.90;;;;;;4139225;28;20038;-67
2023/09/12 06:39:51;;;;;;;10.88;7.80;;;21.30;99.90;;;;;;4136284;28;20057;-70
2023/09/12 06:41:52;;;;;;;11.23;7.32;;;21.30;99.90;;;;;;4136668;28;20038;-70
2023/09/12 06:43:53;;;;;;;10.23;7.40;;;21.30;99.90;;;;;;4141226;28;20093;-70
2023/09/12 06:45:54;;;;;;;11.05;8.90;;;21.40;99.90;;;;;;4136509;28;20135;-70
2023/09/12 06:47:54;;;;;;;12.23;9.00;;;21.40;99.90;;;;;;4141049;28;20089;-70
2023/09/12 06:49:55;;;;;;;15.15;9.63;;;21.40;99.90;;;;;;4139539;28;20096;-70
2023/09/12 06:51:55;;;;;;;14.25;8.95;;;21.30;99.90;;;;;;4141216;28;20061;-71
2023/09/12 06:53:56;;;;;;;13.68;9.75;;;21.30;99.90;;;;;;4135006;28;20567;-71
2023/09/12 06:55:58;;;;;;;10.98;7.68;;;21.30;99.90;;;;;;4140838;28;20065;-71
2023/09/12 06:57:59;;;;;;;11.45;7.80;;;21.30;99.90;;;;;;4137909;28;20042;-71
2023/09/12 06:59:59;;;;;;;10.18;8.13;;;21.30;99.90;;;;;;4131185;28;20488;-70
2023/09/12 07:02:00;;;;;;;15.20;10.75;;;21.30;99.90;;;;;;4062474;28;20038;-69
2023/09/12 07:04:01;;;;;;;11.82;8.23;;;21.20;99.90;;;;;;4096969;28;20125;-69
2023/09/12 07:06:03;;;;;;;11.43;8.15;;;21.30;99.90;;;;;;4134801;28;20133;-68
2023/09/12 07:08:04;;;;;;;8.45;7.13;;;21.30;99.90;;;;;;4153873;28;20033;-70
2023/09/12 07:10:06;;;;;;;9.65;7.63;;;21.30;99.90;;;;;;4133280;28;20038;-70
2023/09/12 07:12:07;;;;;;;12.10;9.00;;;21.30;99.90;;;;;;4138044;28;20037;-70
2023/09/12 07:14:09;;;;;;;9.63;7.40;;;21.20;99.90;;;;;;4140050;28;20126;-70
2023/09/12 07:16:10;;;;;;;8.57;6.85;;;21.20;99.90;;;;;;4136367;28;20081;-70
2023/09/12 07:18:11;;;;;;;7.47;6.20;;;21.20;99.90;;;;;;4131941;28;20451;-71
2023/09/12 07:20:11;;;;;;;9.20;7.05;;;21.30;99.90;;;;;;4151007;28;20133;-70
2023/09/12 07:22:12;;;;;;;10.88;7.40;;;21.30;99.90;;;;;;4138080;28;20041;-70
2023/09/12 07:24:13;;;;;;;9.40;7.60;;;21.30;99.90;;;;;;4127051;28;20046;-70
2023/09/12 07:26:14;;;;;;;8.68;6.32;;;21.30;99.90;;;;;;4072225;28;20593;-70
2023/09/12 07:28:15;;;;;;;12.65;8.57;;;21.40;99.90;;;;;;4144322;28;20449;-71
2023/09/12 07:30:16;;;;;;;11.15;8.63;;;21.20;99.90;;;;;;4131927;28;20042;-70
2023/09/12 07:32:16;;;;;;;14.60;9.15;;;21.20;99.90;;;;;;4140266;28;20457;-70
2023/09/12 07:34:17;;;;;;;8.68;7.45;;;21.10;99.90;;;;;;4140296;28;20034;-70
2023/09/12 07:36:18;;;;;;;7.97;6.03;;;21.10;99.90;;;;;;4140539;28;20415;-71
2023/09/12 07:38:19;;;;;;;9.05;6.47;;;21.10;99.90;;;;;;4139596;28;20061;-70
2023/09/12 07:40:20;;;;;;;7.63;6.38;;;21.00;99.90;;;;;;4138701;28;20437;-70
2023/09/12 07:42:22;;;;;;;7.97;5.75;;;21.10;99.90;;;;;;4141449;28;20037;-70
2023/09/12 07:44:23;;;;;;;8.82;6.43;;;21.20;99.90;;;;;;4154088;28;20091;-70
2023/09/12 07:46:24;;;;;;;7.72;5.22;;;21.20;99.90;;;;;;4140623;28;20473;-70
2023/09/12 07:48:24;;;;;;;6.20;4.78;;;21.20;99.90;;;;;;4139454;28;20141;-70
2023/09/12 07:50:25;;;;;;;7.00;5.57;;;21.30;99.90;;;;;;4132246;28;20054;-71
2023/09/12 07:52:26;;;;;;;7.60;4.97;;;21.30;99.90;;;;;;4136796;28;20137;-70
2023/09/12 07:54:27;;;;;;;6.78;5.28;;;21.30;99.90;;;;;;4140426;28;20073;-70
2023/09/12 07:56:28;;;;;;;8.10;4.90;;;21.30;99.90;;;;;;4141852;28;20095;-71
2023/09/12 07:58:29;;;;;;;9.02;5.90;;;21.40;99.90;;;;;;4141125;28;20033;-71
2023/09/12 08:00:30;;;;;;;5.90;5.15;;;21.50;99.90;;;;;;4128608;28;20546;-71
2023/09/12 08:02:30;;;;;;;5.57;4.63;;;21.50;99.90;;;;;;4137990;28;20061;-71
2023/09/12 08:04:31;;;;;;;5.47;4.30;;;21.60;99.90;;;;;;4130694;28;20030;-71
2023/09/12 08:06:35;;;;;;;6.45;4.47;;;21.60;99.90;;;;;;4149682;28;20553;-71
2023/09/12 08:08:35;;;;;;;5.78;4.57;;;21.60;99.90;;;;;;4140185;28;20034;-71
2023/09/12 08:10:36;;;;;;;8.60;4.93;;;21.70;99.90;;;;;;4137497;28;20033;-71
2023/09/12 08:12:41;;;;;;;6.05;4.72;;;21.70;99.90;;;;;;4132682;28;20459;-71
2023/09/12 08:14:42;;;;;;;5.20;4.30;;;21.70;99.90;;;;;;4117884;28;20062;-71
2023/09/12 08:16:42;;;;;;;5.07;4.00;;;21.70;99.90;;;;;;4135702;28;20129;-71
2023/09/12 08:18:43;;;;;;;6.45;3.97;;;21.80;99.90;;;;;;4127311;28;20038;-71
2023/09/12 08:20:44;;;;;;;6.05;4.10;;;21.80;99.90;;;;;;4137111;28;20128;-71
2023/09/12 08:22:44;;;;;;;5.75;4.75;;;21.90;99.90;;;;;;4153391;28;20522;-71
2023/09/12 08:24:45;;;;;;;4.90;4.15;;;22.00;99.90;;;;;;4136160;28;20034;-71
2023/09/12 08:26:46;;;;;;;7.47;5.55;;;22.20;99.90;;;;;;4129766;28;20104;-71
2023/09/12 08:28:46;;;;;;;5.88;4.38;;;22.30;99.90;;;;;;4132328;28;20038;-71
2023/09/12 08:30:47;;;;;;;6.68;4.75;;;22.40;99.90;;;;;;4140650;28;20142;-71
2023/09/12 08:32:49;;;;;;;5.47;4.05;;;22.50;99.90;;;;;;4137547;28;20049;-71
2023/09/12 08:34:50;;;;;;;6.82;3.35;;;22.70;99.90;;;;;;4140959;28;20791;-71
2023/09/12 08:36:51;;;;;;;5.57;3.10;;;22.80;99.90;;;;;;4142626;28;20050;-71
2023/09/12 08:38:52;;;;;;;5.05;3.72;;;22.90;99.90;;;;;;4142371;28;20023;-71
2023/09/12 08:40:52;;;;;;;5.45;2.97;;;23.00;99.90;;;;;;4139168;28;20046;-71
2023/09/12 08:42:54;;;;;;;3.35;2.85;;;23.10;99.90;;;;;;4137896;28;20458;-71
2023/09/12 08:44:54;;;;;;;4.28;3.40;;;23.30;99.90;;;;;;4132116;28;20051;-70
2023/09/12 08:46:55;;;;;;;3.95;2.85;;;23.40;99.90;;;;;;4135501;28;21567;-70
2023/09/12 08:48:56;;;;;;;3.53;2.97;;;23.50;99.90;;;;;;4138547;28;20037;-70
2023/09/12 08:50:58;;;;;;;4.35;3.40;;;23.50;99.90;;;;;;4136426;28;20449;-70
2023/09/12 08:52:59;;;;;;;4.53;3.50;;;23.70;99.90;;;;;;4120941;28;20034;-70
2023/09/12 08:55:00;;;;;;;4.65;3.20;;;23.70;99.90;;;;;;4133409;28;20038;-70
2023/09/12 08:57:05;;;;;;;4.68;3.85;;;23.90;99.90;;;;;;4140484;28;20060;-70
2023/09/12 08:59:08;;;;;;;4.35;2.97;;;24.00;99.90;;;;;;4140312;28;20037;-70
2023/09/12 09:01:12;;;;;;;5.78;3.83;;;24.00;99.90;;;;;;4153667;28;20418;-69
2023/09/12 09:03:14;;;;;;;6.20;3.85;;;24.20;99.90;;;;;;4133104;28;20045;-69
2023/09/12 09:05:15;;;;;;;5.28;3.85;;;24.30;99.90;;;;;;4132001;28;20218;-69
2023/09/12 09:07:18;;;;;;;6.23;4.23;;;24.40;99.90;;;;;;4132537;28;20510;-70
2023/09/12 09:09:19;;;;;;;4.00;3.53;;;24.50;99.90;;;;;;4134130;28;20034;-70
2023/09/12 09:11:19;;;;;;;4.85;3.50;;;24.50;99.90;;;;;;4131870;28;20036;-70
2023/09/12 09:13:20;;;;;;;4.35;3.13;;;24.60;99.90;;;;;;4134334;28;20455;-70
2023/09/12 09:15:28;;;;;;;5.50;3.33;;;24.60;99.90;;;;;;4136005;28;20068;-69
2023/09/12 09:17:29;;;;;;;6.90;4.07;;;24.70;99.90;;;;;;4128216;28;20022;-69
2023/09/12 09:19:43;;;;;;;6.55;3.75;;;24.80;99.90;;;;;;4133375;28;20470;-68
2023/09/12 09:21:43;;;;;;;5.20;3.83;;;24.90;99.90;;;;;;4139098;28;20056;-69
2023/09/12 09:23:47;;;;;;;8.00;4.07;;;24.90;99.90;;;;;;4140342;28;20124;-69
2023/09/12 09:25:53;;;;;;;5.05;3.70;;;24.90;99.90;;;;;;4136373;28;20053;-69
2023/09/12 09:27:54;;;;;;;7.22;3.88;;;24.90;99.90;;;;;;4139136;28;20088;-67
2023/09/12 09:29:55;;;;;;;4.88;3.17;;;25.00;99.90;;;;;;4127792;28;20426;-68
2023/09/12 09:31:55;;;;;;;4.38;3.25;;;25.00;99.90;;;;;;4133477;28;20068;-69
2023/09/12 09:33:57;;;;;;;4.07;3.28;;;25.00;99.90;;;;;;4131907;28;20042;-69
2023/09/12 09:36:06;;;;;;;6.10;3.47;;;25.00;99.90;;;;;;4130963;28;20042;-69
2023/09/12 09:38:07;;;;;;;5.00;3.70;;;25.00;99.90;;;;;;4137028;28;20048;-68
2023/09/12 09:40:09;;;;;;;6.78;5.15;;;25.00;99.90;;;;;;4130051;28;20113;-69
2023/09/12 09:42:11;;;;;;;4.32;3.65;;;25.00;99.90;;;;;;4117899;28;20761;-68
2023/09/12 09:44:13;;;;;;;6.63;4.50;;;24.90;99.90;;;;;;4115692;28;20031;-70
2023/09/12 09:46:19;;;;;;;6.40;4.85;;;25.00;99.90;;;;;;4127893;28;20077;-69
2023/09/12 09:48:31;;;;;;;6.03;4.32;;;25.00;99.90;;;;;;4140654;28;20371;-70
2023/09/12 09:50:35;;;;;;;7.07;4.55;;;24.90;99.90;;;;;;4138213;28;20122;-69
2023/09/12 09:52:36;;;;;;;4.38;3.22;;;25.00;99.90;;;;;;4137124;28;20038;-70
2023/09/12 09:54:43;;;;;;;4.65;3.55;;;25.00;99.90;;;;;;4135887;28;20144;-69
2023/09/12 09:56:54;;;;;;;4.38;3.67;;;25.00;99.90;;;;;;4136650;28;20042;-70
2023/09/12 09:58:56;;;;;;;4.03;3.42;;;25.10;99.90;;;;;;4139586;28;20038;-70
2023/09/12 10:00:57;;;;;;;3.53;3.13;;;25.10;99.90;;;;;;4136963;28;20045;-68
2023/09/12 10:02:59;;;;;;;4.55;3.67;;;25.20;99.90;;;;;;4138765;28;20111;-68
2023/09/12 10:05:04;;;;;;;5.63;4.30;;;25.20;99.90;;;;;;4135812;28;20072;-68
2023/09/12 10:07:05;;;;;;;4.85;4.30;;;25.30;99.90;;;;;;4140240;28;20041;-68
2023/09/12 10:09:10;;;;;;;7.45;3.90;;;25.30;99.90;;;;;;4139852;28;20044;-69
2023/09/12 10:11:13;;;;;;;4.40;3.58;;;25.30;99.90;;;;;;4135064;28;20033;-71
2023/09/12 10:13:16;;;;;;;4.80;3.35;;;25.40;99.90;;;;;;4139460;28;20045;-73
2023/09/12 10:15:22;;;;;;;4.65;3.40;;;25.40;99.90;;;;;;4136970;28;20038;-72
2023/09/12 10:17:29;;;;;;;4.38;3.90;;;25.50;99.90;;;;;;4127902;28;20520;-74
2023/09/12 10:19:58;;;;;;;7.35;5.32;;;25.60;99.90;;;;;;4128718;28;20049;-72
2023/09/12 10:22:17;;;;;;;7.82;5.18;;;25.60;99.90;;;;;;4139312;28;20041;-71
2023/09/12 10:24:21;;;;;;;5.03;4.05;;;25.70;99.90;;;;;;4138050;28;20041;-72
2023/09/12 10:26:23;;;;;;;6.03;4.35;;;25.70;99.90;;;;;;4152835;28;20196;-72
2023/09/12 10:28:25;;;;;;;5.40;4.22;;;25.80;99.90;;;;;;4151758;28;20025;-75